Time;durP1;ratioP1;P1;durP2;ratioP2;P2;SDS_P1;SDS_P2;PMS_P1;PMS_P2;Temp;Humidity;BMP_temperature;BMP_pressure;BME280_temperature;BME280_humidity;BME280_pressure;Samples;Min_cycle;Max_cycle;Signal;HPM_P1;HPM_P2
2021/10/18 00:00:45;;;;;;;23.98;16.20;;;9.70;99.90;;;;;;4098271;28;20039;-76
2021/10/18 00:02:46;;;;;;;21.05;17.45;;;9.60;99.90;;;;;;4103679;28;20036;-76
2021/10/18 00:04:47;;;;;;;23.02;17.33;;;9.60;99.90;;;;;;4112768;28;20038;-77
2021/10/18 00:06:48;;;;;;;22.27;17.55;;;9.50;99.90;;;;;;4113388;28;20031;-77
2021/10/18 00:08:48;;;;;;;25.35;18.02;;;9.40;99.90;;;;;;4114212;28;20564;-77
2021/10/18 00:10:49;;;;;;;25.98;17.98;;;9.40;99.90;;;;;;4096089;28;20023;-77
2021/10/18 00:12:50;;;;;;;23.40;17.98;;;9.40;99.90;;;;;;4113158;28;20046;-77
2021/10/18 00:14:50;;;;;;;27.27;18.63;;;9.30;99.90;;;;;;4094180;28;20307;-77
2021/10/18 00:16:51;;;;;;;27.85;18.90;;;9.30;99.90;;;;;;4113324;28;20101;-77
2021/10/18 00:18:52;;;;;;;27.33;18.33;;;9.30;99.90;;;;;;4105551;28;20070;-76
2021/10/18 00:20:54;;;;;;;21.40;18.10;;;9.20;99.90;;;;;;4096783;28;20570;-77
2021/10/18 00:22:55;;;;;;;33.80;18.77;;;9.20;99.90;;;;;;4128913;28;20034;-77
2021/10/18 00:24:56;;;;;;;24.80;18.50;;;9.20;99.90;;;;;;4114872;28;20541;-76
2021/10/18 00:26:57;;;;;;;24.77;19.15;;;9.20;99.90;;;;;;4128838;28;20118;-76
2021/10/18 00:28:58;;;;;;;31.88;18.05;;;9.20;99.90;;;;;;4110375;28;20122;-77
2021/10/18 00:30:59;;;;;;;24.67;17.90;;;9.20;99.90;;;;;;4115473;28;20031;-77
2021/10/18 00:32:59;;;;;;;20.42;17.63;;;9.30;99.90;;;;;;4112156;28;20433;-77
2021/10/18 00:35:00;;;;;;;22.67;18.45;;;9.30;99.90;;;;;;4128590;28;20071;-76
2021/10/18 00:37:01;;;;;;;23.88;15.95;;;9.30;99.90;;;;;;4096428;28;21753;-76
2021/10/18 00:39:02;;;;;;;27.42;19.58;;;9.30;99.90;;;;;;4111102;28;20035;-75
2021/10/18 00:41:03;;;;;;;25.23;18.52;;;9.40;99.90;;;;;;4119547;28;20034;-77
2021/10/18 00:43:04;;;;;;;28.98;18.73;;;9.30;99.90;;;;;;4113108;28;20054;-76
2021/10/18 00:45:08;;;;;;;26.63;19.85;;;9.30;99.90;;;;;;4119483;28;20049;-76
2021/10/18 00:47:18;;;;;;;23.92;19.20;;;9.20;99.90;;;;;;4108498;28;20077;-77
2021/10/18 00:49:19;;;;;;;24.35;17.80;;;9.10;99.90;;;;;;4112591;28;20121;-77
2021/10/18 00:51:26;;;;;;;24.58;19.65;;;9.00;99.90;;;;;;4106734;28;20109;-77
2021/10/18 00:53:28;;;;;;;23.40;18.33;;;9.00;99.90;;;;;;4111722;28;20034;-77
2021/10/18 00:55:29;;;;;;;27.02;18.67;;;9.00;99.90;;;;;;4113645;28;20062;-77
2021/10/18 00:57:30;;;;;;;25.67;17.48;;;9.00;99.90;;;;;;4095427;28;20090;-76
2021/10/18 00:59:33;;;;;;;27.75;20.13;;;9.00;99.90;;;;;;4127504;28;20058;-77
2021/10/18 01:01:34;;;;;;;27.00;20.27;;;8.90;99.90;;;;;;4110507;28;20096;-76
2021/10/18 01:03:38;;;;;;;22.23;18.30;;;8.90;99.90;;;;;;4110690;28;20638;-76
2021/10/18 01:05:41;;;;;;;25.50;20.65;;;8.90;99.90;;;;;;4111104;28;20151;-76
2021/10/18 01:07:42;;;;;;;23.73;19.10;;;8.90;99.90;;;;;;4108927;28;20071;-76
2021/10/18 01:09:43;;;;;;;29.50;20.02;;;8.80;99.90;;;;;;4112178;28;20126;-76
2021/10/18 01:11:44;;;;;;;27.17;19.75;;;8.80;99.90;;;;;;4109147;28;20565;-76
2021/10/18 01:13:45;;;;;;;28.63;20.63;;;8.70;99.90;;;;;;4111869;28;20031;-77
2021/10/18 01:15:46;;;;;;;31.40;21.48;;;8.70;99.90;;;;;;4110394;28;20035;-77
2021/10/18 01:17:46;;;;;;;31.83;21.33;;;8.60;99.90;;;;;;4097445;28;20043;-76
2021/10/18 01:19:51;;;;;;;23.05;19.42;;;8.60;99.90;;;;;;4122793;28;20071;-76
2021/10/18 01:22:02;;;;;;;34.15;22.75;;;8.50;99.90;;;;;;4113270;28;20055;-76
2021/10/18 01:24:03;;;;;;;34.80;21.77;;;8.50;99.90;;;;;;4102353;28;20431;-77
2021/10/18 01:26:04;;;;;;;35.10;22.65;;;8.50;99.90;;;;;;4120023;28;20036;-77
2021/10/18 01:28:05;;;;;;;28.67;21.42;;;8.60;99.90;;;;;;4111891;28;20059;-77
2021/10/18 01:30:06;;;;;;;31.67;23.27;;;8.60;99.90;;;;;;4113571;28;20035;-76
2021/10/18 01:32:08;;;;;;;30.25;20.85;;;8.70;99.90;;;;;;4113915;28;20138;-76
2021/10/18 01:34:09;;;;;;;25.15;20.60;;;8.70;99.90;;;;;;4113423;28;20035;-77
2021/10/18 01:36:10;;;;;;;30.23;19.75;;;8.80;99.90;;;;;;4107181;28;20027;-77
2021/10/18 01:38:10;;;;;;;28.85;21.30;;;8.80;99.90;;;;;;4125214;28;20035;-77
2021/10/18 01:40:14;;;;;;;26.00;20.05;;;8.90;99.90;;;;;;4096559;28;20090;-76
2021/10/18 01:42:15;;;;;;;36.13;21.15;;;8.90;99.90;;;;;;4124171;28;20030;-76
2021/10/18 01:44:17;;;;;;;27.00;22.23;;;8.90;99.90;;;;;;4096427;28;20404;-76
2021/10/18 01:46:17;;;;;;;27.95;21.60;;;8.90;99.90;;;;;;4110286;28;20134;-77
2021/10/18 01:48:20;;;;;;;29.38;21.17;;;8.90;99.90;;;;;;4112003;28;20031;-77
2021/10/18 01:50:25;;;;;;;32.25;22.85;;;8.90;99.90;;;;;;4121360;28;20102;-77
2021/10/18 01:52:26;;;;;;;31.63;21.98;;;8.80;99.90;;;;;;4114924;28;20562;-76
2021/10/18 01:54:27;;;;;;;35.40;23.75;;;8.80;99.90;;;;;;4122332;28;20143;-76
2021/10/18 01:56:29;;;;;;;27.35;22.55;;;8.70;99.90;;;;;;4111284;28;20560;-76
2021/10/18 01:58:32;;;;;;;31.83;24.50;;;8.60;99.90;;;;;;4125608;28;20117;-76
2021/10/18 02:00:32;;;;;;;32.33;25.15;;;8.50;99.90;;;;;;4112159;28;20042;-76
2021/10/18 02:02:33;;;;;;;38.08;23.63;;;8.50;99.90;;;;;;4126824;28;20042;-76
2021/10/18 02:04:35;;;;;;;35.97;24.98;;;8.40;99.90;;;;;;4112350;28;20057;-76
2021/10/18 02:06:36;;;;;;;37.75;24.63;;;8.40;99.90;;;;;;4116694;28;20557;-76
2021/10/18 02:08:38;;;;;;;39.80;26.70;;;8.30;99.90;;;;;;4119826;28;20041;-76
2021/10/18 02:10:38;;;;;;;41.00;26.27;;;8.20;99.90;;;;;;4109559;28;20082;-76
2021/10/18 02:12:39;;;;;;;36.53;25.25;;;8.20;99.90;;;;;;4107627;28;20043;-76
2021/10/18 02:14:40;;;;;;;40.60;27.10;;;8.20;99.90;;;;;;4113919;28;20473;-76
2021/10/18 02:16:41;;;;;;;44.47;28.45;;;8.10;99.90;;;;;;4114620;28;20166;-77
2021/10/18 02:18:42;;;;;;;40.03;27.48;;;8.00;99.90;;;;;;4098775;28;20618;-77
2021/10/18 02:20:43;;;;;;;41.10;29.75;;;8.00;99.90;;;;;;4114691;28;20034;-77
2021/10/18 02:22:43;;;;;;;38.80;27.30;;;7.90;99.90;;;;;;4100684;28;20035;-76
2021/10/18 02:24:44;;;;;;;41.08;28.75;;;7.90;99.90;;;;;;4094780;28;20043;-75
2021/10/18 02:26:45;;;;;;;42.78;29.13;;;7.80;99.90;;;;;;4098435;28;20097;-76
2021/10/18 02:28:46;;;;;;;43.03;29.85;;;7.80;99.90;;;;;;4127516;28;20034;-76
2021/10/18 02:30:47;;;;;;;42.55;29.20;;;7.80;99.90;;;;;;4114708;28;20097;-76
2021/10/18 02:32:48;;;;;;;40.97;30.23;;;7.70;99.90;;;;;;4114544;28;20047;-76
2021/10/18 02:34:49;;;;;;;40.45;30.45;;;7.70;99.90;;;;;;4114534;28;20105;-75
2021/10/18 02:36:50;;;;;;;44.45;30.58;;;7.70;99.90;;;;;;4114834;28;20035;-76
2021/10/18 02:38:51;;;;;;;44.78;29.00;;;7.70;99.90;;;;;;4114228;28;20538;-76
2021/10/18 02:40:51;;;;;;;40.17;27.80;;;7.60;99.90;;;;;;4115368;28;20039;-76
2021/10/18 02:42:52;;;;;;;50.47;32.42;;;7.60;99.90;;;;;;4114000;28;20125;-76
2021/10/18 02:44:53;;;;;;;48.10;31.17;;;7.50;99.90;;;;;;4107222;28;20046;-76
2021/10/18 02:46:54;;;;;;;42.08;31.52;;;7.50;99.90;;;;;;4127959;28;20043;-76
2021/10/18 02:48:54;;;;;;;44.80;32.03;;;7.40;99.90;;;;;;4126348;28;20158;-76
2021/10/18 02:50:55;;;;;;;49.50;33.08;;;7.40;99.90;;;;;;4114719;28;20105;-76
2021/10/18 02:52:56;;;;;;;49.65;32.92;;;7.30;99.90;;;;;;4115084;28;20038;-76
2021/10/18 02:54:56;;;;;;;49.90;33.33;;;7.30;99.90;;;;;;4114868;28;20131;-76
2021/10/18 02:56:57;;;;;;;55.10;33.53;;;7.30;99.90;;;;;;4098794;28;20406;-77
2021/10/18 02:58:58;;;;;;;48.47;33.40;;;7.40;99.90;;;;;;4128132;28;20592;-77
2021/10/18 03:00:59;;;;;;;50.50;34.75;;;7.40;99.90;;;;;;4097221;28;20478;-77
2021/10/18 03:03:00;;;;;;;51.53;35.17;;;7.50;99.90;;;;;;4123884;28;20414;-76
2021/10/18 03:05:00;;;;;;;57.08;37.35;;;7.50;99.90;;;;;;4112586;28;20151;-77
2021/10/18 03:07:01;;;;;;;47.70;33.85;;;7.60;99.90;;;;;;4097492;28;21935;-75
2021/10/18 03:09:02;;;;;;;44.92;34.38;;;7.60;99.90;;;;;;4114084;28;20493;-76
2021/10/18 03:11:03;;;;;;;53.30;34.65;;;7.60;99.90;;;;;;4116573;28;20569;-76
2021/10/18 03:13:04;;;;;;;46.00;32.70;;;7.60;99.90;;;;;;4114013;28;20122;-76
2021/10/18 03:15:05;;;;;;;57.30;34.03;;;7.60;99.90;;;;;;4115097;28;20034;-76
2021/10/18 03:17:06;;;;;;;45.33;32.58;;;7.50;99.90;;;;;;4129904;28;20042;-77
2021/10/18 03:19:07;;;;;;;49.90;34.00;;;7.50;99.90;;;;;;4098090;28;20109;-76
2021/10/18 03:21:08;;;;;;;51.17;33.97;;;7.40;99.90;;;;;;4097773;28;20487;-76
2021/10/18 03:23:08;;;;;;;49.15;33.63;;;7.40;99.90;;;;;;4109624;28;20031;-77
2021/10/18 03:25:09;;;;;;;50.88;34.63;;;7.30;99.90;;;;;;4115338;28;20122;-74
2021/10/18 03:27:11;;;;;;;49.90;34.55;;;7.30;99.90;;;;;;4112632;28;20035;-77
2021/10/18 03:29:12;;;;;;;48.03;34.42;;;7.30;99.90;;;;;;4099157;28;20035;-76
2021/10/18 03:31:12;;;;;;;46.38;32.22;;;7.30;99.90;;;;;;4123262;28;20081;-77
2021/10/18 03:33:13;;;;;;;53.92;34.95;;;7.20;99.90;;;;;;4099906;28;20039;-77
2021/10/18 03:35:14;;;;;;;53.00;34.45;;;7.30;99.90;;;;;;4103423;28;20035;-74
2021/10/18 03:37:15;;;;;;;46.22;33.95;;;7.20;99.90;;;;;;4126799;28;20059;-75
2021/10/18 03:39:16;;;;;;;52.20;34.92;;;7.10;99.90;;;;;;4127832;28;20027;-76
2021/10/18 03:41:17;;;;;;;53.20;35.85;;;7.10;99.90;;;;;;4098049;28;20118;-77
2021/10/18 03:43:19;;;;;;;55.03;37.50;;;7.00;99.90;;;;;;4109652;28;20570;-76
2021/10/18 03:45:20;;;;;;;55.38;37.22;;;6.90;99.90;;;;;;4116594;28;20121;-76
2021/10/18 03:47:21;;;;;;;47.92;35.45;;;6.90;99.90;;;;;;4111679;28;20134;-76
2021/10/18 03:49:22;;;;;;;56.25;36.47;;;6.80;99.90;;;;;;4111547;28;20569;-76
2021/10/18 03:51:24;;;;;;;62.88;37.13;;;6.80;99.90;;;;;;4110764;28;20042;-76
2021/10/18 03:53:25;;;;;;;53.85;33.92;;;6.70;99.90;;;;;;4114965;28;20568;-76
2021/10/18 03:55:26;;;;;;;55.55;36.50;;;6.70;99.90;;;;;;4127079;28;20118;-76
2021/10/18 03:57:27;;;;;;;57.00;34.20;;;6.60;99.90;;;;;;4115946;28;20561;-76
2021/10/18 03:59:27;;;;;;;52.97;33.38;;;6.50;99.90;;;;;;4108053;28;20177;-76
2021/10/18 04:01:28;;;;;;;63.13;36.35;;;6.40;99.90;;;;;;4099445;28;20043;-76
2021/10/18 04:03:29;;;;;;;60.30;37.90;;;6.30;99.90;;;;;;4110797;28;20047;-76
2021/10/18 04:05:30;;;;;;;49.00;33.35;;;6.30;99.90;;;;;;4114974;28;20043;-76
2021/10/18 04:07:31;;;;;;;59.80;38.33;;;6.20;99.90;;;;;;4101033;28;20138;-77
2021/10/18 04:09:32;;;;;;;52.92;33.80;;;6.20;99.90;;;;;;4116366;28;20043;-76
2021/10/18 04:11:38;;;;;;;61.30;34.03;;;6.20;99.90;;;;;;4114836;28;20122;-76
2021/10/18 04:13:38;;;;;;;56.47;34.80;;;6.10;99.90;;;;;;4113707;28;20374;-76
2021/10/18 04:15:39;;;;;;;53.50;33.83;;;6.10;99.90;;;;;;4113300;28;20031;-76
2021/10/18 04:17:40;;;;;;;53.95;36.13;;;6.10;99.90;;;;;;4115240;28;20038;-77
2021/10/18 04:19:41;;;;;;;60.67;39.67;;;6.00;99.90;;;;;;4112312;28;20447;-76
2021/10/18 04:21:41;;;;;;;60.35;36.85;;;6.00;99.90;;;;;;4095847;28;20054;-76
2021/10/18 04:23:42;;;;;;;57.47;34.50;;;5.90;99.90;;;;;;4111093;28;20039;-77
2021/10/18 04:25:43;;;;;;;67.88;40.65;;;5.90;99.90;;;;;;4108163;28;20043;-76
2021/10/18 04:27:44;;;;;;;60.55;37.22;;;5.90;99.90;;;;;;4126662;28;20046;-76
2021/10/18 04:29:45;;;;;;;65.90;40.10;;;5.90;99.90;;;;;;4097772;28;20056;-77
2021/10/18 04:31:45;;;;;;;72.53;40.95;;;5.80;99.90;;;;;;4113856;28;20038;-76
2021/10/18 04:33:46;;;;;;;65.15;37.42;;;5.80;99.90;;;;;;4108004;28;20045;-77
2021/10/18 04:35:47;;;;;;;65.63;37.80;;;5.80;99.90;;;;;;4112581;28;20043;-76
2021/10/18 04:37:48;;;;;;;58.78;35.75;;;5.80;99.90;;;;;;4121138;28;20046;-76
2021/10/18 04:39:48;;;;;;;65.20;37.30;;;5.80;99.90;;;;;;4113555;28;20038;-76
2021/10/18 04:41:49;;;;;;;64.53;38.28;;;5.90;99.90;;;;;;4116840;28;20457;-76
2021/10/18 04:43:50;;;;;;;71.25;37.08;;;5.90;99.90;;;;;;4103560;28;20038;-76
2021/10/18 04:45:51;;;;;;;66.80;39.15;;;5.90;99.90;;;;;;4099296;28;20493;-76
2021/10/18 04:47:52;;;;;;;61.95;39.63;;;5.90;99.90;;;;;;4112603;28;20043;-76
2021/10/18 04:49:52;;;;;;;69.03;41.60;;;6.00;99.90;;;;;;4115939;28;20113;-75
2021/10/18 04:51:53;;;;;;;72.35;41.85;;;6.00;99.90;;;;;;4105922;28;20074;-76
2021/10/18 04:53:54;;;;;;;68.68;39.17;;;6.10;99.90;;;;;;4111395;28;20047;-75
2021/10/18 04:55:55;;;;;;;75.70;41.40;;;6.20;99.90;;;;;;4125446;28;20113;-76
2021/10/18 04:58:01;;;;;;;68.82;40.33;;;6.30;99.90;;;;;;4096668;28;20117;-76
2021/10/18 05:00:02;;;;;;;71.90;42.33;;;6.30;99.90;;;;;;4108151;28;20089;-75
2021/10/18 05:02:03;;;;;;;68.95;39.95;;;6.30;99.90;;;;;;4095511;28;20076;-75
2021/10/18 05:04:04;;;;;;;68.25;40.35;;;6.30;99.90;;;;;;4107712;28;20484;-75
2021/10/18 05:06:05;;;;;;;68.43;42.05;;;6.30;99.90;;;;;;4112632;28;20525;-75
2021/10/18 05:08:10;;;;;;;72.43;41.28;;;6.30;99.90;;;;;;4108434;28;20032;-76
2021/10/18 05:10:13;;;;;;;71.05;40.78;;;6.30;99.90;;;;;;4114538;28;20031;-75
2021/10/18 05:12:14;;;;;;;70.82;41.20;;;6.30;99.90;;;;;;4119849;28;20065;-76
2021/10/18 05:14:15;;;;;;;70.95;41.17;;;6.30;99.90;;;;;;4100810;28;20130;-76
2021/10/18 05:16:16;;;;;;;73.40;41.45;;;6.30;99.90;;;;;;4108474;28;20063;-76
2021/10/18 05:18:16;;;;;;;74.05;41.70;;;6.40;99.90;;;;;;4114885;28;20101;-76
2021/10/18 05:20:17;;;;;;;77.05;40.22;;;6.40;99.90;;;;;;4103886;28;20046;-76
2021/10/18 05:22:18;;;;;;;64.90;41.90;;;6.40;99.90;;;;;;4108304;28;20031;-75
2021/10/18 05:24:19;;;;;;;76.15;44.17;;;6.40;99.90;;;;;;4102028;28;20094;-75
2021/10/18 05:26:20;;;;;;;80.05;45.03;;;6.40;99.90;;;;;;4105278;28;20034;-76
2021/10/18 05:28:21;;;;;;;78.70;44.40;;;6.50;99.90;;;;;;4105429;28;20059;-76
2021/10/18 05:30:25;;;;;;;76.35;43.28;;;6.50;99.90;;;;;;4105819;28;20068;-76
2021/10/18 05:32:26;;;;;;;77.35;44.55;;;6.50;99.90;;;;;;4123557;28;20037;-76
2021/10/18 05:34:26;;;;;;;85.55;45.78;;;6.60;99.90;;;;;;4096420;28;20047;-76
2021/10/18 05:36:27;;;;;;;83.25;44.97;;;6.60;99.90;;;;;;4111671;28;20035;-77
2021/10/18 05:38:28;;;;;;;81.80;46.40;;;6.60;99.90;;;;;;4098133;28;20050;-76
2021/10/18 05:40:29;;;;;;;82.72;46.90;;;6.60;99.90;;;;;;4123388;28;20050;-77
2021/10/18 05:42:30;;;;;;;76.20;45.13;;;6.70;99.90;;;;;;4124306;28;20065;-76
2021/10/18 05:44:30;;;;;;;82.90;46.97;;;6.60;99.90;;;;;;4109004;28;20138;-77
2021/10/18 05:46:31;;;;;;;76.72;46.80;;;6.60;99.90;;;;;;4113862;28;20061;-76
2021/10/18 05:48:32;;;;;;;76.68;45.78;;;6.60;99.90;;;;;;4111334;28;20537;-77
2021/10/18 05:50:39;;;;;;;86.50;45.97;;;6.60;99.90;;;;;;4113939;28;20039;-76
2021/10/18 05:52:40;;;;;;;78.05;45.65;;;6.60;99.90;;;;;;4113818;28;20371;-76
2021/10/18 05:54:40;;;;;;;78.32;45.13;;;6.60;99.90;;;;;;4116634;28;20045;-76
2021/10/18 05:56:41;;;;;;;79.28;47.15;;;6.60;99.90;;;;;;4115153;28;20178;-75
2021/10/18 05:58:42;;;;;;;81.03;47.72;;;6.60;99.90;;;;;;4113750;28;20050;-77
2021/10/18 06:00:45;;;;;;;84.10;46.78;;;6.60;99.90;;;;;;4097926;28;20039;-76
2021/10/18 06:02:47;;;;;;;88.10;46.22;;;6.60;99.90;;;;;;4098961;28;20065;-75
2021/10/18 06:04:47;;;;;;;93.28;49.95;;;6.60;99.90;;;;;;4114817;28;20402;-75
2021/10/18 06:06:48;;;;;;;84.72;48.97;;;6.70;99.90;;;;;;4126732;28;20031;-76
2021/10/18 06:08:49;;;;;;;92.20;50.13;;;6.60;99.90;;;;;;4113111;28;20049;-76
2021/10/18 06:10:50;;;;;;;84.65;48.58;;;6.60;99.90;;;;;;4112942;28;20507;-76
2021/10/18 06:12:51;;;;;;;92.53;48.53;;;6.60;99.90;;;;;;4117663;28;20059;-76
2021/10/18 06:14:53;;;;;;;89.28;50.08;;;6.70;99.90;;;;;;4115339;28;20541;-76
2021/10/18 06:16:54;;;;;;;91.40;51.30;;;6.60;99.90;;;;;;4124438;28;20054;-75
2021/10/18 06:18:55;;;;;;;92.28;48.53;;;6.70;99.90;;;;;;4110639;28;20478;-76
2021/10/18 06:20:56;;;;;;;87.18;48.03;;;6.70;99.90;;;;;;4122501;28;20041;-76
2021/10/18 06:22:56;;;;;;;93.00;48.60;;;6.70;99.90;;;;;;4105649;28;20042;-76
2021/10/18 06:24:57;;;;;;;83.00;47.00;;;6.70;99.90;;;;;;4108899;28;20702;-76
2021/10/18 06:26:58;;;;;;;86.97;49.08;;;6.70;99.90;;;;;;4128108;28;20149;-76
2021/10/18 06:28:59;;;;;;;83.00;45.85;;;6.60;99.90;;;;;;4125034;28;20521;-76
2021/10/18 06:30:59;;;;;;;89.05;51.80;;;6.70;99.90;;;;;;4128490;28;20045;-76
2021/10/18 06:33:00;;;;;;;88.80;48.42;;;6.70;99.90;;;;;;4109726;28;20130;-76
2021/10/18 06:35:01;;;;;;;86.78;47.38;;;6.70;99.90;;;;;;4110957;28;20137;-76
2021/10/18 06:37:02;;;;;;;88.55;48.38;;;6.70;99.90;;;;;;4114406;28;20046;-75
2021/10/18 06:39:02;;;;;;;89.45;47.47;;;6.80;99.90;;;;;;4115958;28;20034;-76
2021/10/18 06:41:03;;;;;;;94.90;49.88;;;6.80;99.90;;;;;;4114645;28;20102;-76
2021/10/18 06:43:04;;;;;;;90.15;48.80;;;6.80;99.90;;;;;;4114954;28;20034;-76
2021/10/18 06:45:07;;;;;;;84.55;47.53;;;6.90;99.90;;;;;;4109638;28;20035;-76
2021/10/18 06:47:09;;;;;;;82.47;45.92;;;7.00;99.90;;;;;;4095949;28;20035;-76
2021/10/18 06:49:10;;;;;;;84.13;46.85;;;7.00;99.90;;;;;;4096492;28;20032;-76
2021/10/18 06:51:11;;;;;;;81.93;47.45;;;7.10;99.90;;;;;;4106472;28;20491;-76
2021/10/18 06:53:16;;;;;;;86.75;48.92;;;7.10;99.90;;;;;;4093008;28;20067;-76
2021/10/18 06:55:19;;;;;;;88.10;50.15;;;7.20;99.90;;;;;;4121045;28;20125;-76
2021/10/18 06:57:20;;;;;;;93.35;53.13;;;7.20;99.90;;;;;;4124594;28;20030;-76
2021/10/18 06:59:21;;;;;;;87.72;49.08;;;7.20;99.90;;;;;;4127839;28;20038;-76
2021/10/18 07:01:21;;;;;;;99.07;49.55;;;7.30;99.90;;;;;;4113340;28;20058;-76
2021/10/18 07:03:23;;;;;;;89.82;49.17;;;7.30;99.90;;;;;;4113636;28;20046;-76
2021/10/18 07:05:23;;;;;;;86.57;48.33;;;7.40;99.90;;;;;;4114596;28;20046;-77
2021/10/18 07:07:27;;;;;;;82.60;48.25;;;7.40;99.90;;;;;;4114735;28;20414;-76
2021/10/18 07:09:28;;;;;;;87.65;49.42;;;7.50;99.90;;;;;;4126523;28;20114;-76
2021/10/18 07:11:29;;;;;;;82.47;48.22;;;7.50;99.90;;;;;;4128963;28;20042;-76
2021/10/18 07:13:29;;;;;;;93.07;50.00;;;7.60;99.90;;;;;;4106771;28;20486;-76
2021/10/18 07:15:30;;;;;;;87.40;50.83;;;7.60;99.90;;;;;;4114200;28;20039;-77
2021/10/18 07:17:31;;;;;;;80.80;44.80;;;7.70;99.90;;;;;;4126772;28;20045;-76
2021/10/18 07:19:32;;;;;;;88.38;49.10;;;7.70;99.90;;;;;;4114536;28;20176;-76
2021/10/18 07:21:33;;;;;;;83.35;47.22;;;7.80;99.90;;;;;;4110432;28;20510;-75
2021/10/18 07:23:34;;;;;;;95.15;47.67;;;7.90;99.90;;;;;;4107921;28;20109;-76
2021/10/18 07:25:35;;;;;;;80.13;46.25;;;7.90;99.90;;;;;;4098925;28;20051;-75
2021/10/18 07:27:37;;;;;;;78.60;46.88;;;8.10;99.90;;;;;;4121395;28;20031;-75
2021/10/18 07:29:38;;;;;;;87.97;50.13;;;8.20;99.90;;;;;;4101096;28;20043;-75
2021/10/18 07:31:41;;;;;;;79.18;47.47;;;8.20;99.90;;;;;;4125115;28;20490;-75
2021/10/18 07:33:42;;;;;;;81.55;47.33;;;8.30;99.90;;;;;;4113449;28;20046;-76
2021/10/18 07:35:42;;;;;;;81.50;47.95;;;8.50;99.90;;;;;;4113084;28;20042;-75
2021/10/18 07:37:51;;;;;;;85.68;49.03;;;8.50;99.90;;;;;;4121346;28;20034;-75
2021/10/18 07:39:52;;;;;;;80.85;46.63;;;8.60;99.90;;;;;;4113940;28;20509;-74
2021/10/18 07:41:56;;;;;;;68.43;44.60;;;8.70;99.90;;;;;;4103423;28;20117;-74
2021/10/18 07:43:57;;;;;;;78.43;47.80;;;8.80;99.90;;;;;;4118906;28;20042;-75
2021/10/18 07:45:58;;;;;;;71.53;45.22;;;8.80;99.90;;;;;;4114362;28;20157;-74
2021/10/18 07:47:59;;;;;;;66.82;42.90;;;8.90;99.90;;;;;;4107380;28;20414;-74
2021/10/18 07:50:00;;;;;;;64.70;43.08;;;9.00;99.90;;;;;;4115672;28;20047;-75
2021/10/18 07:52:00;;;;;;;57.38;39.97;;;9.00;99.90;;;;;;4111272;28;20453;-76
2021/10/18 07:54:03;;;;;;;65.75;38.83;;;9.10;99.90;;;;;;4114354;28;20046;-76
2021/10/18 07:56:04;;;;;;;60.15;41.97;;;9.20;99.90;;;;;;4108396;28;20497;-75
2021/10/18 07:58:04;;;;;;;65.30;40.47;;;9.20;99.90;;;;;;4114779;28;20850;-76
2021/10/18 08:00:06;;;;;;;60.67;40.35;;;9.30;99.90;;;;;;4091129;28;20035;-76
2021/10/18 08:02:07;;;;;;;58.90;40.05;;;9.40;99.90;;;;;;4105597;28;20133;-76
2021/10/18 08:04:08;;;;;;;48.45;33.42;;;9.50;99.90;;;;;;4112654;28;20192;-76
2021/10/18 08:06:08;;;;;;;48.10;34.03;;;9.50;99.90;;;;;;4112948;28;20062;-75
2021/10/18 08:08:13;;;;;;;44.10;33.88;;;9.60;99.90;;;;;;4113565;28;20039;-76
2021/10/18 08:10:17;;;;;;;52.67;34.70;;;9.70;99.90;;;;;;4111885;28;20043;-76
2021/10/18 08:12:17;;;;;;;47.78;31.92;;;9.80;99.90;;;;;;4098693;28;20054;-76
2021/10/18 08:14:19;;;;;;;48.47;33.47;;;9.80;99.90;;;;;;4125787;28;20113;-76
2021/10/18 08:16:20;;;;;;;49.70;33.55;;;9.90;99.90;;;;;;4097439;28;20035;-76
2021/10/18 08:18:21;;;;;;;45.97;30.13;;;10.00;99.90;;;;;;4121426;28;20556;-75
2021/10/18 08:20:22;;;;;;;37.60;29.25;;;10.00;99.90;;;;;;4114240;28;20062;-75
2021/10/18 08:22:22;;;;;;;40.58;29.40;;;10.10;99.90;;;;;;4124473;28;20037;-76
2021/10/18 08:24:23;;;;;;;35.47;28.90;;;10.20;99.90;;;;;;4115337;28;20093;-76
2021/10/18 08:26:24;;;;;;;39.92;27.27;;;10.30;99.90;;;;;;4119673;28;20035;-76
2021/10/18 08:28:25;;;;;;;40.00;28.08;;;10.50;99.90;;;;;;4083858;28;20530;-76
2021/10/18 08:30:25;;;;;;;39.15;27.45;;;10.60;99.90;;;;;;4110178;28;20039;-75
2021/10/18 08:32:26;;;;;;;31.70;25.75;;;10.70;99.90;;;;;;4111446;28;20031;-75
2021/10/18 08:34:27;;;;;;;32.47;24.38;;;10.80;99.90;;;;;;4097676;28;20150;-76
2021/10/18 08:36:28;;;;;;;31.35;24.27;;;10.90;99.90;;;;;;4107641;28;20086;-76
2021/10/18 08:38:47;;;;;;;32.25;25.15;;;11.10;99.90;;;;;;4114568;28;20410;-75
2021/10/18 08:44:59;;;;;;;32.85;24.60;;;11.30;99.90;;;;;;4111000;28;20505;-76
2021/10/18 08:47:02;;;;;;;31.90;24.15;;;11.40;99.90;;;;;;4111279;28;20023;-76
2021/10/18 08:49:03;;;;;;;26.70;22.00;;;11.50;99.90;;;;;;4108488;28;20036;-76
2021/10/18 08:51:04;;;;;;;31.27;22.27;;;11.50;99.90;;;;;;4097754;28;20549;-76
2021/10/18 08:53:05;;;;;;;30.73;23.88;;;11.50;99.90;;;;;;4111754;28;20051;-75
2021/10/18 08:55:06;;;;;;;29.70;22.77;;;11.60;99.90;;;;;;4128711;28;20161;-75
2021/10/18 08:57:07;;;;;;;28.63;21.60;;;11.70;99.90;;;;;;4113294;28;20054;-76
2021/10/18 08:59:07;;;;;;;38.25;25.05;;;11.80;99.90;;;;;;4113430;28;20031;-76
2021/10/18 09:01:08;;;;;;;29.60;23.67;;;11.90;99.90;;;;;;4111462;28;20616;-76
2021/10/18 09:03:26;;;;;;;33.92;24.13;;;12.10;99.90;;;;;;4114150;28;20439;-76
2021/10/18 09:05:27;;;;;;;28.67;22.35;;;12.20;99.90;;;;;;4118209;28;20046;-76
2021/10/18 09:07:27;;;;;;;28.92;22.55;;;12.30;99.90;;;;;;4102993;28;20047;-75
2021/10/18 09:09:51;;;;;;;28.92;20.67;;;12.40;99.90;;;;;;4125687;28;20124;-76
2021/10/18 09:11:58;;;;;;;28.23;21.30;;;12.40;99.90;;;;;;4112290;28;20039;-75
2021/10/18 09:14:02;;;;;;;28.58;21.40;;;12.60;99.90;;;;;;4108572;28;20039;-76
2021/10/18 09:16:02;;;;;;;26.00;21.40;;;12.60;99.90;;;;;;4096970;28;20047;-75
2021/10/18 09:18:04;;;;;;;26.10;20.27;;;12.70;99.90;;;;;;4110854;28;20045;-75
2021/10/18 09:20:43;;;;;;;27.83;21.75;;;12.70;99.90;;;;;;4110587;28;20094;-75
2021/10/18 09:22:44;;;;;;;32.60;22.25;;;12.80;99.90;;;;;;4055777;29;20052;-75
2021/10/18 09:24:45;;;;;;;27.02;22.00;;;12.80;99.90;;;;;;4070295;29;20051;-75
2021/10/18 09:26:55;;;;;;;29.25;21.92;;;12.80;99.90;;;;;;4065343;29;20040;-76
2021/10/18 09:29:10;;;;;;;26.35;20.70;;;12.80;99.90;;;;;;4114346;28;20062;-76
2021/10/18 09:31:18;;;;;;;25.20;20.75;;;12.90;99.90;;;;;;4118106;28;20049;-76
2021/10/18 09:33:36;;;;;;;30.67;22.80;;;13.10;99.90;;;;;;4116870;28;20081;-76
2021/10/18 09:35:40;;;;;;;30.90;20.98;;;13.30;99.90;;;;;;4119480;28;20463;-76
2021/10/18 09:37:44;;;;;;;27.20;21.73;;;13.30;99.90;;;;;;4126454;28;20549;-76
2021/10/18 09:39:47;;;;;;;30.00;22.58;;;13.20;99.90;;;;;;4117577;28;20150;-74
2021/10/18 09:42:09;;;;;;;32.17;23.13;;;13.30;99.90;;;;;;4119091;28;20039;-74
2021/10/18 09:44:22;;;;;;;29.27;21.75;;;13.30;99.90;;;;;;4103382;28;20035;-75
2021/10/18 09:46:39;;;;;;;26.48;21.65;;;13.20;99.90;;;;;;4106892;28;20050;-75
2021/10/18 10:52:46;;;;;;;24.55;19.38;;;16.50;99.90;;;;;;4102592;28;20097;-75
2021/10/18 10:54:47;;;;;;;23.63;20.23;;;17.10;99.90;;;;;;4112259;28;20203;-74
2021/10/18 10:57:00;;;;;;;23.98;17.98;;;16.80;99.90;;;;;;4114442;28;20158;-74
2021/10/18 10:59:12;;;;;;;25.60;20.08;;;16.30;99.90;;;;;;4111232;28;20042;-75
2021/10/18 11:01:45;;;;;;;22.38;19.40;;;16.10;99.90;;;;;;4119531;28;20122;-75
2021/10/18 11:03:46;;;;;;;25.60;20.10;;;16.00;99.90;;;;;;4102339;28;20391;-75
2021/10/18 11:06:03;;;;;;;21.88;18.25;;;16.00;99.90;;;;;;4112111;28;20035;-75
2021/10/18 11:08:03;;;;;;;23.10;20.25;;;15.90;99.90;;;;;;4107025;28;20048;-75
2021/10/18 11:10:06;;;;;;;24.52;17.83;;;15.70;99.90;;;;;;4122189;28;20035;-75
2021/10/18 11:12:24;;;;;;;21.17;18.15;;;15.80;99.90;;;;;;4120321;28;20034;-75
2021/10/18 11:14:25;;;;;;;22.58;18.65;;;16.00;99.90;;;;;;4102091;28;20062;-75
2021/10/18 11:16:31;;;;;;;25.15;19.20;;;16.10;99.90;;;;;;4124347;28;20418;-75
2021/10/18 11:18:32;;;;;;;29.00;20.13;;;16.10;99.90;;;;;;4124722;28;20676;-75
2021/10/18 11:20:34;;;;;;;25.63;21.15;;;16.00;99.90;;;;;;4117055;28;20043;-75
2021/10/18 11:22:52;;;;;;;23.90;19.60;;;16.20;99.90;;;;;;4112856;28;20209;-75
2021/10/18 11:24:53;;;;;;;21.25;17.80;;;16.40;99.90;;;;;;4112542;28;20039;-74
2021/10/18 11:26:55;;;;;;;29.25;19.60;;;16.50;99.90;;;;;;4112893;28;20027;-75
2021/10/18 11:28:59;;;;;;;23.35;19.40;;;16.50;99.90;;;;;;4112916;28;20470;-75
2021/10/18 11:31:00;;;;;;;25.35;19.48;;;16.40;99.90;;;;;;4111733;28;20035;-75
2021/10/18 11:33:07;;;;;;;24.02;19.77;;;16.30;99.90;;;;;;4093709;28;20098;-75
2021/10/18 11:35:13;;;;;;;25.73;19.65;;;16.40;99.90;;;;;;4130119;28;20474;-75